Time;durP1;ratioP1;P1;durP2;ratioP2;P2;SDS_P1;SDS_P2;PMS_P1;PMS_P2;Temp;Humidity;BMP_temperature;BMP_pressure;BME280_temperature;BME280_humidity;BME280_pressure;Samples;Min_cycle;Max_cycle;Signal;HPM_P1;HPM_P2
2022/01/04 00:01:29;;;;;;;10.65;4.18;;;;;;;;;;5017108;28;20167;-60
2022/01/04 00:03:54;;;;;;;11.38;4.00;;;;;;;;;;5016935;28;20174;-59
2022/01/04 00:06:20;;;;;;;12.60;4.47;;;;;;;;;;5017014;28;20174;-60
2022/01/04 00:08:46;;;;;;;11.98;4.57;;;;;;;;;;5017049;28;20249;-60
2022/01/04 00:11:18;;;;;;;14.60;4.30;;;;;;;;;;5017109;28;20249;-60
2022/01/04 00:13:44;;;;;;;12.00;4.40;;;;;;;;;;5016810;28;20200;-60
2022/01/04 00:16:11;;;;;;;9.68;4.70;;;;;;;;;;5016752;28;20162;-59
2022/01/04 00:18:37;;;;;;;9.98;4.07;;;;;;;;;;5016684;28;20240;-59
2022/01/04 00:21:04;;;;;;;11.35;4.20;;;;;;;;;;5016709;28;20633;-59
2022/01/04 00:23:30;;;;;;;9.77;4.75;;;;;;;;;;5016635;28;20459;-60
2022/01/04 00:25:56;;;;;;;10.90;3.85;;;;;;;;;;5016552;28;20297;-59
2022/01/04 00:28:22;;;;;;;9.73;4.63;;;;;;;;;;5016586;28;20248;-60
2022/01/04 00:30:48;;;;;;;13.88;4.50;;;;;;;;;;5016345;28;20221;-60
2022/01/04 00:33:17;;;;;;;14.55;4.60;;;;;;;;;;5016318;28;20173;-60
2022/01/04 00:35:43;;;;;;;10.18;4.38;;;;;;;;;;5016694;28;20232;-60
2022/01/04 00:38:09;;;;;;;10.05;4.85;;;;;;;;;;5016538;28;20180;-60
2022/01/04 00:40:35;;;;;;;11.13;5.20;;;;;;;;;;5016309;28;20246;-60
2022/01/04 00:43:01;;;;;;;15.27;4.65;;;;;;;;;;5016622;28;20236;-60
2022/01/04 00:45:36;;;;;;;10.23;4.85;;;;;;;;;;5016635;28;20525;-60
2022/01/04 00:50:29;;;;;;;12.88;5.07;;;;;;;;;;5016307;28;20284;-59
2022/01/04 00:52:55;;;;;;;12.88;5.25;;;;;;;;;;5015829;28;20209;-60
2022/01/04 00:55:22;;;;;;;11.57;4.63;;;;;;;;;;5015956;28;20170;-60
2022/01/04 00:57:48;;;;;;;10.23;5.10;;;;;;;;;;5015852;28;20166;-60
2022/01/04 01:00:15;;;;;;;11.60;4.57;;;;;;;;;;5015561;28;20213;-59
2022/01/04 01:02:40;;;;;;;12.35;5.15;;;;;;;;;;5015916;28;20541;-59
2022/01/04 01:05:07;;;;;;;13.80;4.72;;;;;;;;;;5015837;28;20235;-59
2022/01/04 01:07:34;;;;;;;13.15;5.55;;;;;;;;;;5015673;28;20209;-59
2022/01/04 01:12:37;;;;;;;17.75;5.45;;;;;;;;;;5015875;28;20161;-59
2022/01/04 01:15:04;;;;;;;16.23;6.00;;;;;;;;;;5015754;28;20174;-61
2022/01/04 01:17:31;;;;;;;12.63;5.57;;;;;;;;;;5015568;28;20188;-60
2022/01/04 01:19:57;;;;;;;13.48;5.25;;;;;;;;;;5015508;28;20216;-60
2022/01/04 01:22:23;;;;;;;13.65;5.32;;;;;;;;;;5015306;28;20166;-60
2022/01/04 01:24:49;;;;;;;14.27;5.90;;;;;;;;;;5015707;28;20162;-61
2022/01/04 01:27:14;;;;;;;11.40;5.70;;;;;;;;;;5015690;28;20316;-61
2022/01/04 01:29:40;;;;;;;8.85;5.20;;;;;;;;;;5015431;28;20190;-59
2022/01/04 01:32:07;;;;;;;12.13;5.55;;;;;;;;;;5015231;28;20615;-60
2022/01/04 01:34:32;;;;;;;15.05;6.18;;;;;;;;;;5015208;28;20167;-61
2022/01/04 01:36:58;;;;;;;13.73;5.43;;;;;;;;;;5015100;28;20508;-60
2022/01/04 01:39:25;;;;;;;12.98;5.55;;;;;;;;;;5015484;28;20621;-60
2022/01/04 01:41:51;;;;;;;13.20;5.70;;;;;;;;;;5015615;28;20253;-62
2022/01/04 01:44:16;;;;;;;10.57;5.60;;;;;;;;;;5015157;28;20658;-60
2022/01/04 01:46:42;;;;;;;12.18;5.93;;;;;;;;;;5015066;28;20257;-60
2022/01/04 01:49:08;;;;;;;12.40;5.10;;;;;;;;;;5014855;28;20206;-60
2022/01/04 01:51:34;;;;;;;14.65;5.80;;;;;;;;;;5014939;28;20194;-60
2022/01/04 01:54:01;;;;;;;11.73;5.43;;;;;;;;;;5015201;28;20616;-58
2022/01/04 01:56:29;;;;;;;13.70;5.88;;;;;;;;;;5015125;28;20163;-59
2022/01/04 01:58:55;;;;;;;14.25;5.32;;;;;;;;;;5015146;28;20182;-60
2022/01/04 02:01:21;;;;;;;16.27;6.22;;;;;;;;;;5015097;28;20269;-60
2022/01/04 02:03:47;;;;;;;13.15;5.63;;;;;;;;;;5014516;28;20202;-60
2022/01/04 02:06:13;;;;;;;11.38;4.88;;;;;;;;;;5014669;28;20608;-60
2022/01/04 02:08:39;;;;;;;15.80;5.53;;;;;;;;;;5014687;28;20181;-60
2022/01/04 02:11:05;;;;;;;11.57;4.93;;;;;;;;;;5014236;28;20626;-60
2022/01/04 02:13:31;;;;;;;13.50;5.57;;;;;;;;;;5014397;28;20170;-59
2022/01/04 02:15:57;;;;;;;10.70;4.97;;;;;;;;;;5014527;28;20178;-58
2022/01/04 02:18:23;;;;;;;16.33;5.38;;;;;;;;;;5014398;28;20163;-60
2022/01/04 02:20:50;;;;;;;11.02;5.40;;;;;;;;;;5014542;28;20170;-59
2022/01/04 02:23:16;;;;;;;13.18;5.63;;;;;;;;;;5014563;28;20171;-59
2022/01/04 02:25:42;;;;;;;8.98;5.50;;;;;;;;;;5014579;28;20167;-59
2022/01/04 02:28:08;;;;;;;12.63;5.53;;;;;;;;;;5014451;28;20185;-59
2022/01/04 02:30:34;;;;;;;13.15;5.45;;;;;;;;;;5014332;28;20543;-58
2022/01/04 02:33:00;;;;;;;18.65;6.72;;;;;;;;;;5015189;28;20171;-59
2022/01/04 02:35:28;;;;;;;12.80;5.13;;;;;;;;;;5014750;28;20173;-59
2022/01/04 02:37:58;;;;;;;14.27;5.00;;;;;;;;;;5014862;28;20178;-59
2022/01/04 02:40:24;;;;;;;14.70;5.22;;;;;;;;;;5014297;28;20485;-59
2022/01/04 02:42:51;;;;;;;10.95;5.35;;;;;;;;;;5014065;28;20504;-60
2022/01/04 02:45:17;;;;;;;12.63;5.20;;;;;;;;;;5014236;28;20236;-59
2022/01/04 02:47:43;;;;;;;18.25;6.07;;;;;;;;;;5014845;28;20213;-59
2022/01/04 02:50:10;;;;;;;13.68;6.13;;;;;;;;;;5014202;28;20644;-59
2022/01/04 02:52:36;;;;;;;10.80;5.63;;;;;;;;;;5014028;28;20201;-58
2022/01/04 02:55:04;;;;;;;11.93;5.47;;;;;;;;;;5013947;28;20486;-59
2022/01/04 02:57:30;;;;;;;12.93;5.90;;;;;;;;;;5014174;28;20167;-58
2022/01/04 02:59:56;;;;;;;11.88;5.38;;;;;;;;;;5014578;28;20216;-59
2022/01/04 03:02:22;;;;;;;10.73;5.30;;;;;;;;;;5014972;28;20257;-58
2022/01/04 03:04:48;;;;;;;11.93;6.03;;;;;;;;;;5014258;28;20166;-58
2022/01/04 03:07:14;;;;;;;10.63;5.35;;;;;;;;;;5014985;28;20537;-58
2022/01/04 03:09:40;;;;;;;15.98;6.07;;;;;;;;;;5013776;28;20170;-60
2022/01/04 03:12:06;;;;;;;11.90;6.18;;;;;;;;;;5013642;28;20256;-60
2022/01/04 03:14:32;;;;;;;12.88;6.07;;;;;;;;;;5014107;28;20170;-60
2022/01/04 03:16:58;;;;;;;13.88;5.93;;;;;;;;;;5013750;28;20590;-61
2022/01/04 03:19:24;;;;;;;10.00;6.00;;;;;;;;;;5013685;28;20225;-61
2022/01/04 03:21:50;;;;;;;12.40;5.60;;;;;;;;;;5013619;28;20556;-60
2022/01/04 03:24:16;;;;;;;12.52;5.70;;;;;;;;;;5016966;28;20660;-60
2022/01/04 03:26:42;;;;;;;12.73;6.00;;;;;;;;;;5017655;28;20170;-60
2022/01/04 03:29:10;;;;;;;12.68;6.35;;;;;;;;;;5000242;28;20174;-60
2022/01/04 03:31:36;;;;;;;12.77;6.68;;;;;;;;;;5017721;28;20634;-61
2022/01/04 03:34:03;;;;;;;13.55;5.65;;;;;;;;;;5017518;28;20167;-60
2022/01/04 03:36:29;;;;;;;17.40;6.78;;;;;;;;;;5017493;28;20158;-60
2022/01/04 03:38:56;;;;;;;12.88;6.40;;;;;;;;;;5017356;28;20285;-60
2022/01/04 03:41:23;;;;;;;14.07;6.35;;;;;;;;;;5017592;28;20166;-60
2022/01/04 03:43:49;;;;;;;15.88;6.75;;;;;;;;;;5017540;28;20269;-60
2022/01/04 03:46:15;;;;;;;12.43;7.00;;;;;;;;;;5017383;28;20665;-60
2022/01/04 03:48:41;;;;;;;12.65;6.22;;;;;;;;;;5017404;28;20289;-60
2022/01/04 03:51:08;;;;;;;14.52;6.00;;;;;;;;;;5017265;28;20242;-60
2022/01/04 03:53:34;;;;;;;13.50;5.85;;;;;;;;;;5017102;28;20182;-61
2022/01/04 03:56:00;;;;;;;13.95;5.82;;;;;;;;;;5017200;28;20185;-60
2022/01/04 03:58:26;;;;;;;11.00;6.13;;;;;;;;;;5017053;28;20246;-60
2022/01/04 04:00:52;;;;;;;12.10;6.15;;;;;;;;;;5017030;28;20262;-60
2022/01/04 04:03:19;;;;;;;12.95;6.57;;;;;;;;;;5017451;28;20174;-60
2022/01/04 04:05:45;;;;;;;14.52;6.00;;;;;;;;;;5017302;28;20564;-60
2022/01/04 04:08:11;;;;;;;10.77;5.97;;;;;;;;;;5017386;28;20220;-61
2022/01/04 04:10:37;;;;;;;13.18;6.03;;;;;;;;;;5017021;28;20201;-59
2022/01/04 04:13:03;;;;;;;14.95;6.43;;;;;;;;;;5018206;28;20379;-60
2022/01/04 04:15:29;;;;;;;11.75;6.05;;;;;;;;;;5018099;28;20265;-59
2022/01/04 04:17:55;;;;;;;12.98;5.38;;;;;;;;;;5022398;28;20190;-60
2022/01/04 04:20:21;;;;;;;18.35;6.65;;;;;;;;;;5031626;28;20188;-60
2022/01/04 04:22:47;;;;;;;16.40;6.30;;;;;;;;;;5032120;28;20173;-60
2022/01/04 04:25:13;;;;;;;11.73;6.18;;;;;;;;;;5030427;28;20174;-61
2022/01/04 04:27:39;;;;;;;11.50;5.90;;;;;;;;;;5033766;28;20181;-60
2022/01/04 04:30:06;;;;;;;15.63;6.15;;;;;;;;;;5031206;28;20171;-61
2022/01/04 04:32:32;;;;;;;11.65;6.00;;;;;;;;;;5032087;28;20162;-60
2022/01/04 04:34:57;;;;;;;12.60;6.20;;;;;;;;;;5031276;28;20483;-61
2022/01/04 04:37:23;;;;;;;10.52;5.50;;;;;;;;;;5031823;28;20366;-60
2022/01/04 04:39:49;;;;;;;14.10;6.25;;;;;;;;;;5028000;28;20175;-60
2022/01/04 04:42:16;;;;;;;13.60;5.45;;;;;;;;;;5016150;28;20185;-61
2022/01/04 04:44:44;;;;;;;11.65;5.70;;;;;;;;;;5016105;28;20500;-60
2022/01/04 04:47:09;;;;;;;15.73;6.10;;;;;;;;;;5016162;28;20512;-61
2022/01/04 04:49:35;;;;;;;12.60;5.32;;;;;;;;;;5016067;28;20166;-60
2022/01/04 04:52:01;;;;;;;10.15;5.47;;;;;;;;;;5016137;28;20194;-59
2022/01/04 04:54:28;;;;;;;11.25;5.50;;;;;;;;;;5015865;28;20186;-60
2022/01/04 04:56:54;;;;;;;11.60;5.78;;;;;;;;;;5016335;28;20494;-60
2022/01/04 04:59:20;;;;;;;13.80;6.30;;;;;;;;;;5016226;28;20167;-59
2022/01/04 05:01:46;;;;;;;13.65;6.68;;;;;;;;;;5016251;28;20174;-60
2022/01/04 05:04:12;;;;;;;14.63;6.40;;;;;;;;;;5015935;28;20257;-60
2022/01/04 05:06:38;;;;;;;12.30;5.78;;;;;;;;;;5016498;28;20253;-60
2022/01/04 05:09:04;;;;;;;10.50;5.63;;;;;;;;;;5016335;28;20217;-61
2022/01/04 05:11:30;;;;;;;16.25;6.47;;;;;;;;;;5016031;28;20650;-59
2022/01/04 05:13:56;;;;;;;13.52;5.90;;;;;;;;;;5016904;28;20177;-58
2022/01/04 05:16:22;;;;;;;14.50;6.60;;;;;;;;;;5021126;28;20166;-61
2022/01/04 05:18:48;;;;;;;12.07;6.50;;;;;;;;;;5024894;28;20193;-60
2022/01/04 05:21:14;;;;;;;14.80;6.25;;;;;;;;;;5028015;28;20170;-61
2022/01/04 05:23:40;;;;;;;15.88;6.95;;;;;;;;;;5024990;28;20629;-61
2022/01/04 05:26:06;;;;;;;17.73;6.80;;;;;;;;;;5025247;28;20197;-60
2022/01/04 05:28:32;;;;;;;13.20;6.68;;;;;;;;;;5025637;28;20649;-61
2022/01/04 05:30:58;;;;;;;13.77;6.88;;;;;;;;;;5027818;28;20244;-59
2022/01/04 05:33:24;;;;;;;13.50;5.75;;;;;;;;;;5026974;28;20610;-59
2022/01/04 05:35:50;;;;;;;13.35;6.43;;;;;;;;;;5021824;28;20166;-59
2022/01/04 05:38:16;;;;;;;12.75;6.32;;;;;;;;;;5020050;28;20177;-60
2022/01/04 05:40:42;;;;;;;13.65;7.05;;;;;;;;;;5022922;28;20169;-61
2022/01/04 05:43:09;;;;;;;13.52;6.40;;;;;;;;;;5021754;28;20174;-59
2022/01/04 05:45:35;;;;;;;13.30;6.55;;;;;;;;;;5021282;28;20178;-60
2022/01/04 05:48:01;;;;;;;13.98;7.00;;;;;;;;;;5017273;28;20262;-59
2022/01/04 05:50:26;;;;;;;17.88;7.30;;;;;;;;;;5015053;28;20277;-60
2022/01/04 05:52:52;;;;;;;12.25;7.07;;;;;;;;;;5014931;28;20232;-59
2022/01/04 05:55:18;;;;;;;12.00;7.47;;;;;;;;;;5015182;28;20509;-59
2022/01/04 05:57:44;;;;;;;13.80;7.57;;;;;;;;;;5014992;28;20170;-59
2022/01/04 06:00:10;;;;;;;15.35;7.15;;;;;;;;;;5014934;28;20602;-59
2022/01/04 06:02:36;;;;;;;13.35;7.13;;;;;;;;;;5014921;28;20602;-60
2022/01/04 06:05:03;;;;;;;13.30;7.32;;;;;;;;;;5015035;28;20204;-59
2022/01/04 06:07:29;;;;;;;13.80;7.32;;;;;;;;;;5015082;28;20177;-59
2022/01/04 06:09:55;;;;;;;12.23;7.05;;;;;;;;;;5014543;28;20166;-59
2022/01/04 06:15:10;;;;;;;13.57;7.45;;;;;;;;;;4974411;28;20174;-61
2022/01/04 06:17:38;;;;;;;14.77;7.93;;;;;;;;;;5014781;28;20174;-59
2022/01/04 06:20:05;;;;;;;15.43;8.25;;;;;;;;;;5014532;28;20178;-60
2022/01/04 06:22:31;;;;;;;14.05;7.40;;;;;;;;;;5014676;28;20205;-59
2022/01/04 06:24:57;;;;;;;14.40;7.28;;;;;;;;;;5014229;28;20167;-59
2022/01/04 06:27:23;;;;;;;13.10;7.65;;;;;;;;;;5014194;28;20174;-60
2022/01/04 06:29:49;;;;;;;15.93;7.35;;;;;;;;;;5014733;28;20169;-60
2022/01/04 06:32:16;;;;;;;14.45;7.85;;;;;;;;;;5014275;28;20221;-60
2022/01/04 06:34:42;;;;;;;16.90;7.40;;;;;;;;;;5014425;28;20170;-60
2022/01/04 06:37:09;;;;;;;11.93;6.85;;;;;;;;;;5014262;28;20176;-59
2022/01/04 06:39:35;;;;;;;13.27;7.38;;;;;;;;;;5014173;28;20174;-60
2022/01/04 06:42:01;;;;;;;14.27;7.20;;;;;;;;;;5014082;28;20217;-59
2022/01/04 06:44:27;;;;;;;17.45;7.50;;;;;;;;;;5014360;28;20166;-59
2022/01/04 06:46:53;;;;;;;11.75;7.60;;;;;;;;;;5013978;28;20207;-59
2022/01/04 06:49:19;;;;;;;17.83;8.82;;;;;;;;;;5014421;28;20261;-60
2022/01/04 06:51:46;;;;;;;12.48;7.50;;;;;;;;;;5014123;28;20641;-60
2022/01/04 06:54:13;;;;;;;13.13;7.60;;;;;;;;;;5013870;28;20261;-60
2022/01/04 06:56:39;;;;;;;16.60;8.10;;;;;;;;;;5014105;28;20197;-60
2022/01/04 06:59:05;;;;;;;14.95;7.72;;;;;;;;;;5013740;28;20193;-60
2022/01/04 07:01:32;;;;;;;15.77;8.38;;;;;;;;;;5014178;28;20248;-60
2022/01/04 07:03:57;;;;;;;16.48;9.45;;;;;;;;;;5014253;28;20170;-60
2022/01/04 07:06:23;;;;;;;17.13;8.30;;;;;;;;;;5013927;28;20166;-59
2022/01/04 07:08:49;;;;;;;14.13;8.23;;;;;;;;;;5013919;28;20206;-60
2022/01/04 07:11:16;;;;;;;15.52;8.50;;;;;;;;;;5014199;28;20289;-59
2022/01/04 07:13:42;;;;;;;16.42;8.80;;;;;;;;;;5014320;28;20402;-60
2022/01/04 07:16:08;;;;;;;15.48;8.00;;;;;;;;;;5013963;28;20154;-61
2022/01/04 07:18:34;;;;;;;15.98;7.85;;;;;;;;;;5014466;28;20174;-60
2022/01/04 07:21:00;;;;;;;15.32;9.57;;;;;;;;;;5013705;28;20565;-60
2022/01/04 07:23:26;;;;;;;15.90;8.75;;;;;;;;;;5013973;28;20201;-59
2022/01/04 07:25:52;;;;;;;17.02;8.15;;;;;;;;;;5013872;28;20193;-58
2022/01/04 07:28:18;;;;;;;18.33;9.00;;;;;;;;;;5014068;28;20163;-60
2022/01/04 07:30:45;;;;;;;15.43;8.18;;;;;;;;;;5013680;28;20208;-61
2022/01/04 07:33:11;;;;;;;16.48;8.77;;;;;;;;;;5013772;28;20601;-59
2022/01/04 07:35:37;;;;;;;14.32;7.53;;;;;;;;;;5013796;28;20171;-60
2022/01/04 07:38:03;;;;;;;14.70;8.75;;;;;;;;;;5013913;28;20513;-59
2022/01/04 07:40:29;;;;;;;12.98;8.45;;;;;;;;;;5013665;28;20257;-59
2022/01/04 07:42:59;;;;;;;14.18;7.97;;;;;;;;;;5013817;28;20205;-61
2022/01/04 07:45:27;;;;;;;15.15;8.75;;;;;;;;;;5013868;28;20174;-60
2022/01/04 07:47:53;;;;;;;14.82;9.13;;;;;;;;;;5013730;28;20602;-61
2022/01/04 07:50:18;;;;;;;15.35;8.07;;;;;;;;;;5013475;28;20178;-62
2022/01/04 07:52:44;;;;;;;13.23;7.45;;;;;;;;;;5013407;28;20182;-60
2022/01/04 07:55:10;;;;;;;16.23;8.57;;;;;;;;;;5013653;28;20150;-61
2022/01/04 07:57:36;;;;;;;13.45;8.18;;;;;;;;;;5013616;28;20189;-58
2022/01/04 08:00:04;;;;;;;20.50;8.95;;;;;;;;;;5013563;28;20166;-59
2022/01/04 08:02:30;;;;;;;16.27;9.18;;;;;;;;;;5013716;28;20170;-61
2022/01/04 08:04:55;;;;;;;11.55;8.05;;;;;;;;;;5013583;28;20166;-61
2022/01/04 08:07:21;;;;;;;15.80;8.60;;;;;;;;;;5013638;28;20238;-60
2022/01/04 08:09:47;;;;;;;17.38;8.93;;;;;;;;;;5014619;28;20193;-60
2022/01/04 08:12:13;;;;;;;15.25;8.35;;;;;;;;;;5017147;28;20681;-61
2022/01/04 08:14:39;;;;;;;17.13;9.13;;;;;;;;;;5017284;28;20162;-61
2022/01/04 08:17:05;;;;;;;14.07;8.70;;;;;;;;;;5016777;28;20178;-59
2022/01/04 08:19:31;;;;;;;13.55;8.18;;;;;;;;;;5017217;28;20194;-59
2022/01/04 08:21:57;;;;;;;15.98;8.60;;;;;;;;;;5016644;28;20182;-60
2022/01/04 08:24:23;;;;;;;19.00;8.23;;;;;;;;;;5016986;28;20172;-60
2022/01/04 08:26:49;;;;;;;13.18;8.30;;;;;;;;;;5016790;28;20174;-60
2022/01/04 08:29:15;;;;;;;15.77;8.05;;;;;;;;;;5016996;28;20205;-60
2022/01/04 08:31:41;;;;;;;20.10;9.40;;;;;;;;;;5016576;28;20210;-60
2022/01/04 08:34:07;;;;;;;14.07;8.18;;;;;;;;;;5016510;28;20173;-60
2022/01/04 08:36:34;;;;;;;13.52;8.07;;;;;;;;;;5016743;28;20245;-59
2022/01/04 08:39:01;;;;;;;14.43;8.68;;;;;;;;;;5016588;28;20550;-60
2022/01/04 08:41:27;;;;;;;17.85;8.75;;;;;;;;;;5016311;28;20166;-59
2022/01/04 08:43:53;;;;;;;16.20;8.63;;;;;;;;;;5016095;28;20737;-59
2022/01/04 08:46:19;;;;;;;12.73;7.97;;;;;;;;;;5016082;28;20189;-60
2022/01/04 08:48:45;;;;;;;15.65;8.63;;;;;;;;;;5016400;28;20606;-60
2022/01/04 08:51:11;;;;;;;15.57;8.15;;;;;;;;;;4999003;28;20230;-60
2022/01/04 08:53:37;;;;;;;16.40;8.38;;;;;;;;;;5016200;28;20182;-60
2022/01/04 08:56:04;;;;;;;15.70;8.43;;;;;;;;;;5016250;28;20166;-59
2022/01/04 08:58:30;;;;;;;17.40;8.82;;;;;;;;;;5016119;28;20189;-59
2022/01/04 09:00:56;;;;;;;15.13;8.20;;;;;;;;;;5016359;28;20194;-60
2022/01/04 09:03:22;;;;;;;13.80;8.75;;;;;;;;;;5015895;28;20614;-59
2022/01/04 09:05:48;;;;;;;14.57;8.80;;;;;;;;;;5015864;28;20618;-59
2022/01/04 09:08:14;;;;;;;17.30;8.63;;;;;;;;;;5015779;28;20502;-59
2022/01/04 09:10:40;;;;;;;18.27;9.15;;;;;;;;;;5015854;28;20200;-60
2022/01/04 09:13:15;;;;;;;17.45;8.68;;;;;;;;;;5016047;28;20173;-60
2022/01/04 09:20:53;;;;;;;16.90;8.65;;;;;;;;;;5015367;28;20189;-61
2022/01/04 09:23:20;;;;;;;13.52;8.10;;;;;;;;;;5015454;28;20194;-61
2022/01/04 09:25:47;;;;;;;13.63;8.30;;;;;;;;;;5015610;28;20210;-61
2022/01/04 09:28:13;;;;;;;17.73;9.05;;;;;;;;;;5015374;28;20523;-61
2022/01/04 09:30:40;;;;;;;18.27;7.95;;;;;;;;;;5015544;28;20194;-61
2022/01/04 09:33:07;;;;;;;15.30;8.13;;;;;;;;;;5015396;28;20613;-61
2022/01/04 09:35:33;;;;;;;14.95;8.45;;;;;;;;;;5015376;28;20583;-61
2022/01/04 09:37:59;;;;;;;16.27;8.73;;;;;;;;;;5015730;28;20162;-61
2022/01/04 09:40:25;;;;;;;16.90;8.30;;;;;;;;;;5015419;28;20181;-61
2022/01/04 09:42:51;;;;;;;13.38;8.35;;;;;;;;;;5015160;28;20197;-59
2022/01/04 09:45:17;;;;;;;14.68;8.48;;;;;;;;;;5015317;28;20170;-60
2022/01/04 09:47:43;;;;;;;16.08;8.98;;;;;;;;;;5015385;28;20162;-60
2022/01/04 09:50:10;;;;;;;15.60;8.85;;;;;;;;;;5015004;28;20182;-61
2022/01/04 09:52:40;;;;;;;17.17;8.75;;;;;;;;;;5014844;28;20170;-59
2022/01/04 09:55:06;;;;;;;17.08;8.70;;;;;;;;;;5015077;28;20151;-60
2022/01/04 09:57:32;;;;;;;15.50;9.13;;;;;;;;;;4997732;28;20296;-61
2022/01/04 09:59:58;;;;;;;18.10;10.60;;;;;;;;;;5014991;28;20253;-60
2022/01/04 10:02:26;;;;;;;17.20;9.30;;;;;;;;;;5015138;28;20614;-61
2022/01/04 10:04:53;;;;;;;16.67;8.93;;;;;;;;;;5014876;28;20170;-60
2022/01/04 10:07:21;;;;;;;19.63;9.52;;;;;;;;;;5015020;28;20696;-60
2022/01/04 10:09:52;;;;;;;16.35;9.40;;;;;;;;;;5014894;28;20182;-61
2022/01/04 10:12:21;;;;;;;16.17;9.80;;;;;;;;;;5014969;28;20244;-60
2022/01/04 10:14:48;;;;;;;18.45;9.48;;;;;;;;;;5014864;28;20204;-60
2022/01/04 10:17:23;;;;;;;14.13;8.82;;;;;;;;;;5014672;28;20162;-60
2022/01/04 10:19:51;;;;;;;16.27;8.82;;;;;;;;;;5014788;28;20178;-61
2022/01/04 10:22:19;;;;;;;14.38;8.60;;;;;;;;;;5014887;28;20277;-60
2022/01/04 10:24:49;;;;;;;16.50;8.35;;;;;;;;;;5014626;28;20261;-61
2022/01/04 10:27:23;;;;;;;13.13;8.15;;;;;;;;;;5014798;28;20174;-60
2022/01/04 10:29:49;;;;;;;14.63;8.57;;;;;;;;;;5014434;28;20170;-60
2022/01/04 10:32:17;;;;;;;13.45;7.72;;;;;;;;;;5013841;28;20201;-60
2022/01/04 10:34:47;;;;;;;12.85;7.50;;;;;;;;;;5014771;28;20185;-60
2022/01/04 10:37:32;;;;;;;10.27;6.72;;;;;;;;;;5014344;28;20166;-60
2022/01/04 10:40:02;;;;;;;11.98;6.35;;;;;;;;;;5014486;28;20588;-60
2022/01/04 10:42:28;;;;;;;12.55;7.40;;;;;;;;;;5014564;28;20268;-60
2022/01/04 10:44:54;;;;;;;10.25;6.93;;;;;;;;;;5014186;28;20257;-60
2022/01/04 10:47:26;;;;;;;10.35;6.95;;;;;;;;;;5014375;28;20166;-61
2022/01/04 10:49:52;;;;;;;12.77;6.63;;;;;;;;;;5014231;28;20169;-61
2022/01/04 10:52:22;;;;;;;13.30;6.90;;;;;;;;;;5014313;28;20217;-61
2022/01/04 10:55:08;;;;;;;12.88;7.45;;;;;;;;;;5014564;28;20193;-59
2022/01/04 10:57:37;;;;;;;15.82;7.57;;;;;;;;;;5014346;28;20174;-61
2022/01/04 11:00:13;;;;;;;10.27;7.07;;;;;;;;;;5014279;28;20525;-61
2022/01/04 11:02:39;;;;;;;11.82;6.80;;;;;;;;;;5013845;28;20414;-60
2022/01/04 11:05:12;;;;;;;11.63;7.60;;;;;;;;;;5013831;28;20170;-60
2022/01/04 11:07:55;;;;;;;11.80;7.15;;;;;;;;;;5014191;28;20177;-61
2022/01/04 11:10:21;;;;;;;13.13;7.45;;;;;;;;;;5013744;28;20487;-59
2022/01/04 11:12:48;;;;;;;10.30;6.93;;;;;;;;;;5013939;28;20188;-60
2022/01/04 11:15:14;;;;;;;15.15;8.13;;;;;;;;;;5013982;28;20231;-60
2022/01/04 11:17:40;;;;;;;9.52;7.13;;;;;;;;;;5013986;28;20166;-60
2022/01/04 11:20:07;;;;;;;12.82;7.25;;;;;;;;;;5013755;28;20496;-60
2022/01/04 11:22:33;;;;;;;12.85;7.22;;;;;;;;;;5013790;28;20166;-59
2022/01/04 11:25:01;;;;;;;8.45;6.60;;;;;;;;;;5013762;28;20513;-60
2022/01/04 11:27:28;;;;;;;10.40;6.63;;;;;;;;;;5013873;28;20621;-61
2022/01/04 11:29:58;;;;;;;10.38;6.65;;;;;;;;;;5013640;28;20638;-60
2022/01/04 11:32:24;;;;;;;10.70;6.90;;;;;;;;;;5013910;28;20256;-60
2022/01/04 11:35:02;;;;;;;9.90;6.72;;;;;;;;;;5013704;28;20594;-61
2022/01/04 11:37:28;;;;;;;10.63;6.78;;;;;;;;;;5014021;28;20159;-62
2022/01/04 11:39:54;;;;;;;9.73;6.47;;;;;;;;;;5013604;28;20340;-60
2022/01/04 11:42:35;;;;;;;9.90;6.75;;;;;;;;;;5013476;28;20177;-60
2022/01/04 11:45:02;;;;;;;11.30;6.95;;;;;;;;;;5016512;28;20185;-61
2022/01/04 11:47:29;;;;;;;9.65;6.43;;;;;;;;;;5017259;28;20166;-61
2022/01/04 11:50:15;;;;;;;11.13;6.70;;;;;;;;;;5017327;28;20176;-59
2022/01/04 11:52:49;;;;;;;14.15;7.55;;;;;;;;;;5017546;28;20276;-61
2022/01/04 11:55:16;;;;;;;12.52;8.27;;;;;;;;;;5017363;28;20170;-60
2022/01/04 11:57:42;;;;;;;13.57;9.02;;;;;;;;;;5017682;28;20167;-60
2022/01/04 12:00:08;;;;;;;15.75;9.52;;;;;;;;;;5017365;28;20507;-60
2022/01/04 12:02:41;;;;;;;11.50;7.75;;;;;;;;;;5017605;28;20252;-60
2022/01/04 12:05:22;;;;;;;10.75;6.78;;;;;;;;;;5017547;28;20288;-61
2022/01/04 12:07:49;;;;;;;10.10;6.80;;;;;;;;;;5016970;28;20189;-61
2022/01/04 12:10:21;;;;;;;11.35;7.60;;;;;;;;;;5017226;28;20178;-59
2022/01/04 12:12:53;;;;;;;12.88;7.40;;;;;;;;;;5017373;28;20612;-60
2022/01/04 12:15:49;;;;;;;10.68;6.30;;;;;;;;;;5017178;28;20178;-60
2022/01/04 12:18:23;;;;;;;8.57;6.40;;;;;;;;;;4964386;28;20184;-60
2022/01/04 12:20:50;;;;;;;11.30;6.05;;;;;;;;;;5017180;28;20166;-59
2022/01/04 12:23:33;;;;;;;10.27;6.13;;;;;;;;;;5017206;28;20162;-61
2022/01/04 12:26:05;;;;;;;6.10;5.18;;;;;;;;;;5017722;28;20582;-61
2022/01/04 12:28:38;;;;;;;8.75;5.38;;;;;;;;;;5016979;28;20253;-59
2022/01/04 12:31:16;;;;;;;8.45;5.15;;;;;;;;;;5016721;28;20514;-60
2022/01/04 12:33:43;;;;;;;8.35;5.35;;;;;;;;;;5017186;28;20170;-60
2022/01/04 12:36:10;;;;;;;8.20;4.80;;;;;;;;;;5016681;28;20167;-60
2022/01/04 12:38:36;;;;;;;9.32;5.40;;;;;;;;;;5016661;28;20372;-60
2022/01/04 12:41:04;;;;;;;8.13;5.68;;;;;;;;;;5016355;28;20171;-61
2022/01/04 12:43:30;;;;;;;9.23;5.75;;;;;;;;;;5016671;28;20166;-60
2022/01/04 12:45:57;;;;;;;10.00;6.45;;;;;;;;;;5016691;28;20170;-59
2022/01/04 12:48:41;;;;;;;11.02;6.95;;;;;;;;;;5016591;28;20169;-59
2022/01/04 12:51:26;;;;;;;11.57;6.80;;;;;;;;;;5016156;28;20209;-59
2022/01/04 12:53:52;;;;;;;13.55;8.07;;;;;;;;;;5016029;28;20178;-60
2022/01/04 12:56:18;;;;;;;12.30;7.68;;;;;;;;;;5015248;28;20165;-59
2022/01/04 12:58:44;;;;;;;13.20;7.90;;;;;;;;;;5016102;28;20598;-59
2022/01/04 13:01:11;;;;;;;15.45;8.23;;;;;;;;;;5015821;28;20640;-60
2022/01/04 13:03:38;;;;;;;15.68;8.25;;;;;;;;;;5016106;28;20176;-59
2022/01/04 13:06:04;;;;;;;14.05;8.57;;;;;;;;;;5015991;28;20174;-60
2022/01/04 13:08:35;;;;;;;13.70;9.35;;;;;;;;;;5016407;28;20261;-58
2022/01/04 13:11:04;;;;;;;17.30;10.20;;;;;;;;;;5015896;28;20253;-60
2022/01/04 13:13:30;;;;;;;20.05;10.05;;;;;;;;;;5015992;28;20257;-59
2022/01/04 13:15:56;;;;;;;16.55;9.77;;;;;;;;;;5016254;28;20469;-61
2022/01/04 13:18:28;;;;;;;17.85;9.98;;;;;;;;;;5016110;28;20504;-61
2022/01/04 13:21:05;;;;;;;17.90;10.25;;;;;;;;;;5015709;28;20174;-61
2022/01/04 13:23:36;;;;;;;14.55;10.05;;;;;;;;;;5016049;28;20257;-60
2022/01/04 13:26:02;;;;;;;15.80;10.57;;;;;;;;;;5016260;28;20669;-59
2022/01/04 13:28:28;;;;;;;17.15;10.38;;;;;;;;;;5015866;28;20194;-60
2022/01/04 13:30:54;;;;;;;18.90;10.40;;;;;;;;;;5015386;28;20196;-59
2022/01/04 13:33:23;;;;;;;17.92;10.77;;;;;;;;;;5015861;28;20269;-60
2022/01/04 13:35:50;;;;;;;16.55;9.80;;;;;;;;;;5015864;28;20174;-60
2022/01/04 13:38:19;;;;;;;16.52;9.88;;;;;;;;;;5015673;28;20155;-62
2022/01/04 13:40:46;;;;;;;14.45;9.82;;;;;;;;;;5016331;28;20287;-60
2022/01/04 13:43:13;;;;;;;18.08;10.25;;;;;;;;;;5015201;28;20166;-61
2022/01/04 13:45:44;;;;;;;16.80;9.40;;;;;;;;;;5015524;28;20328;-60
2022/01/04 13:48:09;;;;;;;16.55;9.48;;;;;;;;;;5015760;28;20268;-60
2022/01/04 13:50:43;;;;;;;19.63;10.27;;;;;;;;;;5015786;28;20285;-60
2022/01/04 13:53:24;;;;;;;15.48;9.82;;;;;;;;;;5015255;28;20192;-61
2022/01/04 13:55:53;;;;;;;9.70;4.68;;;;;;;;;;5015663;28;20196;-61
2022/01/04 13:58:32;;;;;;;7.78;4.88;;;;;;;;;;5020554;28;20536;-61
2022/01/04 14:00:58;;;;;;;5.20;2.90;;;;;;;;;;5022179;28;20197;-63
2022/01/04 14:03:30;;;;;;;4.10;2.83;;;;;;;;;;5017440;28;20255;-60
2022/01/04 14:05:56;;;;;;;4.82;3.13;;;;;;;;;;5020886;28;20194;-62
2022/01/04 14:08:42;;;;;;;4.95;2.05;;;;;;;;;;5025914;28;20170;-61
2022/01/04 14:11:08;;;;;;;2.72;0.85;;;;;;;;;;5027173;28;20217;-60
2022/01/04 14:13:39;;;;;;;1.70;0.80;;;;;;;;;;5028224;28;20159;-61
2022/01/04 14:16:12;;;;;;;0.80;0.70;;;;;;;;;;5029801;28;20154;-61
2022/01/04 14:18:58;;;;;;;2.88;0.75;;;;;;;;;;5030578;28;20170;-62
2022/01/04 14:21:38;;;;;;;0.95;0.70;;;;;;;;;;5026881;28;20170;-61
2022/01/04 14:24:25;;;;;;;2.55;1.00;;;;;;;;;;5029400;28;20153;-61
2022/01/04 14:26:51;;;;;;;1.27;0.90;;;;;;;;;;5035337;28;20167;-61
2022/01/04 14:29:26;;;;;;;1.65;0.82;;;;;;;;;;5035492;28;20197;-61
2022/01/04 14:31:55;;;;;;;1.60;0.70;;;;;;;;;;5034969;28;20221;-61
2022/01/04 14:34:21;;;;;;;2.63;0.80;;;;;;;;;;5034932;28;20217;-61
2022/01/04 14:36:46;;;;;;;2.13;0.85;;;;;;;;;;5018891;28;20590;-61
2022/01/04 14:39:12;;;;;;;1.90;0.95;;;;;;;;;;5014742;28;20228;-61
2022/01/04 14:41:38;;;;;;;1.70;0.80;;;;;;;;;;5014701;28;20166;-61
2022/01/04 14:44:04;;;;;;;1.58;0.75;;;;;;;;;;5014412;28;20472;-60
2022/01/04 14:46:30;;;;;;;2.55;0.70;;;;;;;;;;5014517;28;20166;-61